createdAt,value
2023-01-25T00:02:18.670Z,0.97
2023-01-25T00:05:04.577Z,0.99
2023-01-25T00:07:50.089Z,1.06
2023-01-25T00:10:35.770Z,1.00
2023-01-25T00:13:21.428Z,0.98
2023-01-25T00:16:07.113Z,0.90
2023-01-25T00:18:52.399Z,1.10
2023-01-25T00:21:38.581Z,0.96
2023-01-25T00:24:25.617Z,1.04
2023-01-25T00:27:11.336Z,1.02
2023-01-25T00:29:57.161Z,0.93
2023-01-25T00:33:06.295Z,0.94
2023-01-25T00:35:51.812Z,0.79
2023-01-25T00:38:38.393Z,0.81
2023-01-25T00:41:23.886Z,0.95
2023-01-25T00:44:09.790Z,0.80
2023-01-25T00:46:55.496Z,0.87
2023-01-25T00:49:42.160Z,0.81
2023-01-25T00:52:28.531Z,0.71
2023-01-25T00:55:15.421Z,0.77
2023-01-25T00:58:00.822Z,0.87
2023-01-25T01:00:46.362Z,0.86
2023-01-25T01:03:32.007Z,0.91
2023-01-25T01:06:17.335Z,0.97
2023-01-25T01:09:03.728Z,0.93
2023-01-25T01:11:49.419Z,0.98
2023-01-25T01:14:34.667Z,0.82
2023-01-25T01:17:20.326Z,0.75
2023-01-25T01:20:06.039Z,0.86
2023-01-25T01:22:52.648Z,0.91
2023-01-25T01:25:38.233Z,0.89
2023-01-25T01:28:23.688Z,0.90
2023-01-25T01:31:16.309Z,1.03
2023-01-25T01:34:01.924Z,0.95
2023-01-25T01:36:47.285Z,0.82
2023-01-25T01:39:33.263Z,0.78
2023-01-25T01:42:18.733Z,0.67
2023-01-25T01:45:42.616Z,0.70
2023-01-25T01:48:39.129Z,0.91
2023-01-25T01:51:27.194Z,0.80
2023-01-25T01:54:25.533Z,0.69
2023-01-25T01:57:15.168Z,0.70
2023-01-25T02:00:06.835Z,0.86
2023-01-25T02:02:52.999Z,0.81
2023-01-25T02:05:50.378Z,0.86
2023-01-25T02:08:36.952Z,0.91
2023-01-25T02:11:22.740Z,0.79
2023-01-25T02:14:08.930Z,0.78
2023-01-25T02:16:54.348Z,0.64
2023-01-25T02:19:51.445Z,0.62
2023-01-25T02:22:51.570Z,0.62
2023-01-25T02:25:37.433Z,0.54
2023-01-25T02:28:48.564Z,0.84
2023-01-25T02:31:34.496Z,0.67
2023-01-25T02:34:20.175Z,0.55
2023-01-25T02:37:05.906Z,0.53
2023-01-25T02:39:51.422Z,0.59
2023-01-25T02:42:36.915Z,0.60
2023-01-25T02:45:27.783Z,0.77
2023-01-25T02:48:13.390Z,0.75
2023-01-25T02:50:58.717Z,0.69
2023-01-25T02:53:44.135Z,0.72
2023-01-25T02:56:30.062Z,0.59
2023-01-25T02:59:15.557Z,0.67
2023-01-25T03:02:01.223Z,0.74
2023-01-25T03:04:46.971Z,0.70
2023-01-25T03:07:32.608Z,0.80
2023-01-25T03:10:18.330Z,0.65
2023-01-25T03:13:03.657Z,0.75
2023-01-25T03:15:49.279Z,0.80
2023-01-25T03:18:34.949Z,0.75
2023-01-25T03:21:21.422Z,0.84
2023-01-25T03:24:07.164Z,0.82
2023-01-25T03:27:10.593Z,0.72
2023-01-25T03:29:56.068Z,0.79
2023-01-25T03:32:41.719Z,0.74
2023-01-25T03:35:27.599Z,0.94
2023-01-25T03:38:12.996Z,0.84
2023-01-25T03:40:58.843Z,0.89
2023-01-25T03:43:44.322Z,0.71
2023-01-25T03:46:30.131Z,0.67
2023-01-25T03:49:15.345Z,0.63
2023-01-25T03:52:00.980Z,0.76
2023-01-25T03:54:46.545Z,0.84
2023-01-25T03:57:32.101Z,0.96
2023-01-25T04:00:18.184Z,0.81
2023-01-25T04:03:03.734Z,0.93
2023-01-25T04:05:49.379Z,0.93
2023-01-25T04:08:35.655Z,0.77
2023-01-25T04:11:21.320Z,0.67
2023-01-25T04:14:06.925Z,0.77
2023-01-25T04:16:52.201Z,0.76
2023-01-25T04:19:37.746Z,0.96
2023-01-25T04:22:23.144Z,0.87
2023-01-25T04:25:09.431Z,0.94
2023-01-25T04:27:55.250Z,1.02
2023-01-25T04:30:40.376Z,0.92
2023-01-25T04:33:25.993Z,1.02
2023-01-25T04:36:11.582Z,1.06
2023-01-25T04:38:57.235Z,1.02
2023-01-25T04:41:44.616Z,0.85
2023-01-25T04:44:29.996Z,0.96
2023-01-25T04:47:15.837Z,1.07
2023-01-25T04:50:01.486Z,1.14
2023-01-25T04:52:46.887Z,1.18
2023-01-25T04:55:33.987Z,1.08
2023-01-25T04:58:19.868Z,1.14
2023-01-25T05:01:05.852Z,1.17
2023-01-25T05:03:51.656Z,1.02
2023-01-25T05:06:37.266Z,1.01
2023-01-25T05:09:22.641Z,0.95
2023-01-25T05:12:11.646Z,0.94
2023-01-25T05:14:57.238Z,1.00
2023-01-25T05:17:42.780Z,1.00
2023-01-25T05:20:28.761Z,1.10
2023-01-25T05:23:14.495Z,1.12
2023-01-25T05:26:18.546Z,1.03
2023-01-25T05:29:03.978Z,1.16
2023-01-25T05:31:49.756Z,1.13
2023-01-25T05:34:36.044Z,1.11
2023-01-25T05:37:21.616Z,1.09
2023-01-25T05:40:08.274Z,1.01
2023-01-25T05:42:58.334Z,1.15
2023-01-25T05:45:44.125Z,1.17
2023-01-25T05:48:29.337Z,1.01
2023-01-25T05:51:15.091Z,1.20
2023-01-25T05:54:00.641Z,1.14
2023-01-25T05:56:48.746Z,1.17
2023-01-25T05:59:34.019Z,1.05
2023-01-25T06:02:19.735Z,1.12
2023-01-25T06:05:05.985Z,0.98
2023-01-25T06:07:51.529Z,1.01
2023-01-25T06:10:37.082Z,1.13
2023-01-25T06:13:24.685Z,1.12
2023-01-25T06:16:10.358Z,1.12
2023-01-25T06:18:55.825Z,0.96
2023-01-25T06:21:41.562Z,1.05
2023-01-25T06:24:26.884Z,1.09
2023-01-25T06:27:12.695Z,1.10
2023-01-25T06:29:58.273Z,0.92
2023-01-25T06:32:43.773Z,0.96
2023-01-25T06:35:31.813Z,0.74
2023-01-25T06:38:17.368Z,0.75
2023-01-25T06:41:05.297Z,0.73
2023-01-25T06:43:51.532Z,0.87
2023-01-25T06:46:37.492Z,0.88
2023-01-25T06:49:23.471Z,0.84
2023-01-25T06:52:08.885Z,0.91
2023-01-25T06:54:54.518Z,0.85
2023-01-25T06:57:40.056Z,0.83
2023-01-25T07:00:25.269Z,0.85
2023-01-25T07:03:11.063Z,0.81
2023-01-25T07:06:01.312Z,0.73
2023-01-25T07:08:47.510Z,0.84
2023-01-25T07:11:33.279Z,0.95
2023-01-25T07:14:18.695Z,0.95
2023-01-25T07:17:04.173Z,0.98
2023-01-25T07:19:49.452Z,0.79
2023-01-25T07:22:34.785Z,0.67
2023-01-25T07:25:20.091Z,0.80
2023-01-25T07:28:05.844Z,0.89
2023-01-25T07:30:51.458Z,0.87
2023-01-25T07:33:36.910Z,0.96
2023-01-25T07:36:23.254Z,1.12
2023-01-25T07:39:11.540Z,1.00
2023-01-25T07:41:57.333Z,1.07
2023-01-25T07:44:43.005Z,1.02
2023-01-25T07:47:28.352Z,0.94
2023-01-25T07:50:14.119Z,0.89
2023-01-25T07:52:59.553Z,0.86
2023-01-25T07:55:45.015Z,1.00
2023-01-25T07:58:30.231Z,0.96
2023-01-25T08:01:18.909Z,1.10
2023-01-25T08:04:05.366Z,1.16
2023-01-25T08:06:50.820Z,1.09
2023-01-25T08:09:36.495Z,0.94
2023-01-25T08:12:22.563Z,0.95
2023-01-25T08:15:09.391Z,0.80
2023-01-25T08:17:55.340Z,0.91
2023-01-25T08:20:41.057Z,1.14
2023-01-25T08:23:27.250Z,1.14
2023-01-25T08:26:14.817Z,1.03
2023-01-25T08:29:00.438Z,0.83
2023-01-25T08:31:47.270Z,0.98
2023-01-25T08:34:32.611Z,0.95
2023-01-25T08:37:18.248Z,0.92
2023-01-25T08:40:04.224Z,1.12
2023-01-25T08:42:49.661Z,0.88
2023-01-25T08:45:36.981Z,0.78
2023-01-25T08:48:22.518Z,0.86
2023-01-25T08:51:09.597Z,0.98
2023-01-25T08:53:54.839Z,0.92
2023-01-25T08:56:41.425Z,0.86
2023-01-25T08:59:26.763Z,0.94
2023-01-25T09:02:12.731Z,0.98
2023-01-25T09:04:58.085Z,1.00
2023-01-25T09:07:43.513Z,1.11
2023-01-25T09:10:28.777Z,1.26
2023-01-25T09:13:14.532Z,1.08
2023-01-25T09:16:04.686Z,1.06
2023-01-25T09:18:50.914Z,1.20
2023-01-25T09:21:37.094Z,1.07
2023-01-25T09:24:22.486Z,1.01
2023-01-25T09:27:08.094Z,1.08
2023-01-25T09:30:01.293Z,1.11
2023-01-25T09:32:50.380Z,1.03
2023-01-25T09:35:37.249Z,1.03
2023-01-25T09:38:22.942Z,1.15
2023-01-25T09:41:21.807Z,1.30
2023-01-25T09:44:44.785Z,1.27
2023-01-25T09:47:59.146Z,1.25
2023-01-25T09:51:05.754Z,1.15
2023-01-25T09:53:54.046Z,1.38
2023-01-25T09:56:40.113Z,1.39
2023-01-25T09:59:30.657Z,1.42
2023-01-25T10:02:34.735Z,1.31
2023-01-25T10:05:27.772Z,1.23
2023-01-25T10:08:32.658Z,1.48
2023-01-25T10:11:24.924Z,1.45
2023-01-25T10:14:15.179Z,1.41
2023-01-25T10:17:20.209Z,1.46
2023-01-25T10:20:05.596Z,1.50
2023-01-25T10:22:58.270Z,1.49
2023-01-25T10:25:56.681Z,1.46
2023-01-25T10:29:00.468Z,1.68
2023-01-25T10:31:53.340Z,1.63
2023-01-25T10:34:55.930Z,1.37
2023-01-25T10:37:43.075Z,1.48
2023-01-25T10:40:35.260Z,1.40
2023-01-25T10:43:22.492Z,1.37
2023-01-25T10:46:24.825Z,1.39
2023-01-25T10:49:42.720Z,1.33
2023-01-25T10:52:32.565Z,1.47
2023-01-25T10:55:23.056Z,1.42
2023-01-25T10:58:32.733Z,1.65
2023-01-25T11:01:35.676Z,1.60
2023-01-25T11:04:35.292Z,1.54
2023-01-25T11:07:28.944Z,1.58
2023-01-25T11:10:35.261Z,1.48
2023-01-25T11:13:27.740Z,1.49
2023-01-25T11:16:32.953Z,1.49
2023-01-25T11:19:38.917Z,1.56
2023-01-25T11:22:24.757Z,1.46
2023-01-25T11:25:31.435Z,1.40
2023-01-25T11:28:20.576Z,1.52
2023-01-25T11:31:12.481Z,1.42
2023-01-25T11:33:57.967Z,1.42
2023-01-25T11:37:05.081Z,1.21
2023-01-25T11:40:30.098Z,1.36
2023-01-25T11:43:44.509Z,1.48
2023-01-25T11:47:02.155Z,1.61
2023-01-25T11:50:07.362Z,1.63
2023-01-25T11:53:13.989Z,1.39
2023-01-25T11:56:29.745Z,1.55
2023-01-25T11:59:35.901Z,1.58
2023-01-25T12:02:36.462Z,1.58
2023-01-25T12:05:38.772Z,1.49
2023-01-25T12:08:50.949Z,1.43
2023-01-25T12:12:01.352Z,1.55
2023-01-25T12:15:10.079Z,1.39
2023-01-25T12:18:26.130Z,1.50
2023-01-25T12:21:31.598Z,1.54
2023-01-25T12:24:37.660Z,1.39
2023-01-25T12:27:37.629Z,1.21
2023-01-25T12:30:36.277Z,1.25
2023-01-25T12:33:32.018Z,1.47
2023-01-25T12:36:38.379Z,1.25
2023-01-25T12:39:31.752Z,1.36
2023-01-25T12:42:22.537Z,1.26
2023-01-25T12:45:22.195Z,1.31
2023-01-25T12:48:21.713Z,1.31
2023-01-25T12:51:08.253Z,1.31
2023-01-25T12:53:55.219Z,1.20
2023-01-25T12:56:52.844Z,1.35
2023-01-25T13:00:04.473Z,1.46
2023-01-25T13:03:04.203Z,1.21
2023-01-25T13:06:03.739Z,1.31
2023-01-25T13:09:01.621Z,1.22
2023-01-25T13:11:47.908Z,1.36
2023-01-25T13:14:38.459Z,1.16
2023-01-25T13:17:34.271Z,1.04
2023-01-25T13:20:40.328Z,1.11
2023-01-25T13:23:47.563Z,1.04
2023-01-25T13:26:54.223Z,1.20
2023-01-25T13:29:39.723Z,0.99
2023-01-25T13:32:25.150Z,0.97
2023-01-25T13:35:30.893Z,1.17
2023-01-25T13:38:29.747Z,0.96
2023-01-25T13:41:17.347Z,0.99
2023-01-25T13:44:22.764Z,1.05
2023-01-25T13:47:12.495Z,0.87
2023-01-25T13:50:21.464Z,0.82
2023-01-25T13:53:24.197Z,0.67
2023-01-25T13:56:26.273Z,0.67
2023-01-25T13:59:25.796Z,0.87
2023-01-25T14:02:19.074Z,1.03
2023-01-25T14:05:08.120Z,0.83
2023-01-25T14:07:56.988Z,1.03
2023-01-25T14:10:44.283Z,0.78
2023-01-25T14:13:29.727Z,0.66
2023-01-25T14:16:17.842Z,0.89
2023-01-25T14:19:24.113Z,0.78
2023-01-25T14:22:29.476Z,0.76
2023-01-25T14:25:17.386Z,0.81
2023-01-25T14:28:06.833Z,0.83
2023-01-25T14:30:55.183Z,0.67
2023-01-25T14:33:47.671Z,0.63
2023-01-25T14:36:37.038Z,0.62
2023-01-25T14:39:28.974Z,0.68
2023-01-25T14:42:16.575Z,0.50
2023-01-25T14:45:03.946Z,0.52
2023-01-25T14:47:59.431Z,0.55
2023-01-25T14:50:45.457Z,0.54
2023-01-25T14:53:31.575Z,0.65
2023-01-25T14:56:20.064Z,0.68
2023-01-25T14:59:06.266Z,0.62
2023-01-25T15:01:54.312Z,0.62
2023-01-25T15:04:39.705Z,0.53
2023-01-25T15:07:43.897Z,0.73
2023-01-25T15:10:31.774Z,0.61
2023-01-25T15:13:17.218Z,0.70
2023-01-25T15:16:04.061Z,0.62
2023-01-25T15:18:51.743Z,0.70
2023-01-25T15:21:37.476Z,0.59
2023-01-25T15:24:23.673Z,0.68
2023-01-25T15:27:10.284Z,0.68
2023-01-25T15:29:55.639Z,0.55
2023-01-25T15:32:41.217Z,0.55
2023-01-25T15:35:27.795Z,0.57
2023-01-25T15:38:14.605Z,0.51
2023-01-25T15:41:01.554Z,0.71
2023-01-25T15:43:48.098Z,0.66
2023-01-25T15:46:35.133Z,0.65
2023-01-25T15:49:31.522Z,0.61
2023-01-25T15:52:17.010Z,0.67
2023-01-25T15:55:02.826Z,0.53
2023-01-25T15:57:48.493Z,0.51
2023-01-25T16:00:34.432Z,0.50
2023-01-25T16:03:20.371Z,0.44
2023-01-25T16:06:30.086Z,0.32
2023-01-25T16:09:22.113Z,0.38
2023-01-25T16:12:08.618Z,0.23
2023-01-25T16:14:54.064Z,0.41
2023-01-25T16:17:39.612Z,0.36
2023-01-25T16:20:25.037Z,0.37
2023-01-25T16:23:11.943Z,0.30
2023-01-25T16:25:57.872Z,0.45
2023-01-25T16:28:43.163Z,0.45
2023-01-25T16:31:32.959Z,0.38
2023-01-25T16:34:20.244Z,0.37
2023-01-25T16:37:05.561Z,0.51
2023-01-25T16:39:52.532Z,0.61
2023-01-25T16:42:37.762Z,0.61
2023-01-25T16:45:24.131Z,0.59
2023-01-25T16:48:15.529Z,0.39
2023-01-25T16:51:02.323Z,0.31
2023-01-25T16:53:48.862Z,0.39
2023-01-25T16:56:34.384Z,0.34
2023-01-25T16:59:20.778Z,0.52
2023-01-25T17:02:06.149Z,0.37
2023-01-25T17:04:51.891Z,0.40
2023-01-25T17:07:37.586Z,0.39
2023-01-25T17:10:24.058Z,0.31
2023-01-25T17:13:09.375Z,0.39
2023-01-25T17:15:58.413Z,0.36
2023-01-25T17:18:44.465Z,0.39
2023-01-25T17:21:31.436Z,0.40
2023-01-25T17:24:20.928Z,0.47
2023-01-25T17:27:06.802Z,0.44
2023-01-25T17:29:52.142Z,0.38
2023-01-25T17:32:37.535Z,0.45
2023-01-25T17:35:22.825Z,0.42
2023-01-25T17:38:08.765Z,0.52
2023-01-25T17:40:55.199Z,0.48
2023-01-25T17:43:41.123Z,0.54
2023-01-25T17:46:33.188Z,0.45
2023-01-25T17:49:18.954Z,0.36
2023-01-25T17:52:04.445Z,0.38
2023-01-25T17:54:49.814Z,0.47
2023-01-25T17:57:37.062Z,0.45
2023-01-25T18:00:23.081Z,0.39
2023-01-25T18:03:08.705Z,0.38
2023-01-25T18:05:58.132Z,0.45
2023-01-25T18:08:45.844Z,0.29
2023-01-25T18:11:34.658Z,0.48
2023-01-25T18:14:20.322Z,0.45
2023-01-25T18:17:05.587Z,0.42
2023-01-25T18:19:51.345Z,0.41
2023-01-25T18:22:37.150Z,0.53
2023-01-25T18:25:36.667Z,0.58
2023-01-25T18:28:21.855Z,0.68
2023-01-25T18:31:07.669Z,0.49
2023-01-25T18:33:53.028Z,0.51
2023-01-25T18:36:38.339Z,0.50
2023-01-25T18:39:23.988Z,0.58
2023-01-25T18:42:09.315Z,0.61
2023-01-25T18:44:54.848Z,0.37
2023-01-25T18:47:40.277Z,0.37
2023-01-25T18:50:26.017Z,0.37
2023-01-25T18:53:11.858Z,0.35
2023-01-25T18:56:02.084Z,0.32
2023-01-25T18:58:48.446Z,0.31
2023-01-25T19:01:34.288Z,0.29
2023-01-25T19:04:19.700Z,0.35
2023-01-25T19:07:05.530Z,0.36
2023-01-25T19:09:50.796Z,0.39
2023-01-25T19:12:36.481Z,0.36
2023-01-25T19:15:22.443Z,0.31
2023-01-25T19:18:07.908Z,0.28
2023-01-25T19:20:53.424Z,0.17
2023-01-25T19:23:40.099Z,0.17
2023-01-25T19:26:25.784Z,0.19
2023-01-25T19:29:13.617Z,0.14
2023-01-25T19:31:58.835Z,0.04
2023-01-25T19:34:44.517Z,0.06
2023-01-25T19:37:30.116Z,0.10
2023-01-25T19:40:15.706Z,0.10
2023-01-25T19:43:01.096Z,0.11
2023-01-25T19:45:46.601Z,0.09
2023-01-25T19:48:34.489Z,-0.05
2023-01-25T19:51:32.735Z,0.12
2023-01-25T19:54:18.806Z,-0.01
2023-01-25T19:57:04.100Z,0.11
2023-01-25T19:59:49.590Z,0.06
2023-01-25T20:02:34.973Z,0.02
2023-01-25T20:05:21.583Z,0.05
2023-01-25T20:08:07.061Z,0.12
2023-01-25T20:10:57.658Z,0.27
2023-01-25T20:13:43.875Z,0.26
2023-01-25T20:16:32.128Z,0.26
2023-01-25T20:19:17.488Z,0.32
2023-01-25T20:22:03.857Z,0.38
2023-01-25T20:24:49.491Z,0.36
2023-01-25T20:27:35.124Z,0.20
2023-01-25T20:30:20.787Z,0.22
2023-01-25T20:33:06.176Z,0.23
2023-01-25T20:35:54.167Z,0.20
2023-01-25T20:38:39.799Z,0.21
2023-01-25T20:41:25.813Z,0.21
2023-01-25T20:44:15.768Z,0.24
2023-01-25T20:47:01.274Z,0.18
2023-01-25T20:49:46.857Z,0.21
2023-01-25T20:52:32.311Z,0.16
2023-01-25T20:55:17.883Z,0.20
2023-01-25T20:58:03.223Z,0.25
2023-01-25T21:00:48.955Z,0.18
2023-01-25T21:03:34.538Z,0.18
2023-01-25T21:06:20.621Z,0.07
2023-01-25T21:09:06.439Z,-0.09
2023-01-25T21:11:52.189Z,-0.16
2023-01-25T21:14:37.880Z,-0.25
2023-01-25T21:17:23.120Z,-0.18
2023-01-25T21:20:09.351Z,-0.23
2023-01-25T21:22:54.744Z,-0.24
2023-01-25T21:25:40.437Z,-0.07
2023-01-25T21:28:25.889Z,-0.16
2023-01-25T21:31:15.379Z,-0.12
2023-01-25T21:34:02.249Z,-0.30
2023-01-25T21:36:48.618Z,-0.23
2023-01-25T21:39:33.997Z,-0.17
2023-01-25T21:42:19.438Z,-0.24
2023-01-25T21:45:23.744Z,-0.37
2023-01-25T21:48:09.295Z,-0.34
2023-01-25T21:51:13.168Z,-0.32
2023-01-25T21:53:59.192Z,-0.28
2023-01-25T21:56:45.491Z,-0.31
2023-01-25T21:59:30.784Z,-0.48
2023-01-25T22:02:16.262Z,-0.33
2023-01-25T22:05:01.597Z,-0.56
2023-01-25T22:07:46.980Z,-0.56
2023-01-25T22:10:32.323Z,-0.57
2023-01-25T22:13:17.661Z,-0.52
2023-01-25T22:16:05.244Z,-0.64
2023-01-25T22:18:51.001Z,-0.50
2023-01-25T22:21:36.667Z,-0.54
2023-01-25T22:24:22.216Z,-0.69
2023-01-25T22:27:30.418Z,-0.56
2023-01-25T22:30:15.877Z,-0.59
2023-01-25T22:33:01.263Z,-0.63
2023-01-25T22:35:47.167Z,-0.44
2023-01-25T22:38:32.833Z,-0.50
2023-01-25T22:41:20.424Z,-0.61
2023-01-25T22:44:06.025Z,-0.50
2023-01-25T22:46:52.952Z,-0.51
2023-01-25T22:49:38.644Z,-0.60
2023-01-25T22:52:24.316Z,-0.55
2023-01-25T22:55:09.665Z,-0.53
2023-01-25T22:57:55.286Z,-0.50
2023-01-25T23:00:40.893Z,-0.56
2023-01-25T23:03:26.333Z,-0.72
2023-01-25T23:06:17.968Z,-0.67
2023-01-25T23:09:06.228Z,-0.65
2023-01-25T23:11:51.751Z,-0.64
2023-01-25T23:14:55.049Z,-0.76
2023-01-25T23:17:58.936Z,-0.73
2023-01-25T23:20:44.506Z,-0.71
2023-01-25T23:23:30.309Z,-0.53
2023-01-25T23:26:16.397Z,-0.54
2023-01-25T23:29:01.782Z,-0.54
2023-01-25T23:31:47.389Z,-0.60
2023-01-25T23:34:35.537Z,-0.53
2023-01-25T23:37:21.998Z,-0.53
2023-01-25T23:40:08.795Z,-0.47
2023-01-25T23:42:54.785Z,-0.61
2023-01-25T23:45:42.523Z,-0.47
2023-01-25T23:48:28.019Z,-0.43
2023-01-25T23:51:14.977Z,-0.54
2023-01-25T23:54:00.386Z,-0.46
2023-01-25T23:56:45.670Z,-0.52
2023-01-25T23:59:31.401Z,-0.40
